createdAt,value
2023-01-30T00:02:08.306Z,1.49
2023-01-30T00:04:35.864Z,1.47
2023-01-30T00:07:03.495Z,1.56
2023-01-30T00:09:31.097Z,1.42
2023-01-30T00:11:58.736Z,1.37
2023-01-30T00:14:27.725Z,1.23
2023-01-30T00:16:55.337Z,1.26
2023-01-30T00:19:22.930Z,1.04
2023-01-30T00:21:50.591Z,1.02
2023-01-30T00:24:21.555Z,1.01
2023-01-30T00:26:49.289Z,0.98
2023-01-30T00:29:16.873Z,0.89
2023-01-30T00:31:46.108Z,0.90
2023-01-30T00:34:13.817Z,0.88
2023-01-30T00:36:41.461Z,0.81
2023-01-30T00:39:09.070Z,0.88
2023-01-30T00:41:50.601Z,0.90
2023-01-30T00:44:35.140Z,0.86
2023-01-30T00:47:08.664Z,0.94
2023-01-30T00:49:36.952Z,0.90
2023-01-30T00:52:05.139Z,0.73
2023-01-30T00:54:32.678Z,0.75
2023-01-30T00:57:00.344Z,0.72
2023-01-30T00:59:28.458Z,0.76
2023-01-30T01:01:56.257Z,0.72
2023-01-30T01:04:25.350Z,0.65
2023-01-30T01:06:52.985Z,0.60
2023-01-30T01:09:20.588Z,0.75
2023-01-30T01:11:48.203Z,0.82
2023-01-30T01:14:15.826Z,0.86
2023-01-30T01:16:43.554Z,0.81
2023-01-30T01:19:11.158Z,0.85
2023-01-30T01:21:40.043Z,0.95
2023-01-30T01:24:08.433Z,0.90
2023-01-30T01:26:36.042Z,0.95
2023-01-30T01:29:03.590Z,0.89
2023-01-30T01:31:31.340Z,0.69
2023-01-30T01:33:58.999Z,0.65
2023-01-30T01:36:52.048Z,0.61
2023-01-30T01:39:15.715Z,0.59
2023-01-30T01:41:42.397Z,0.61
2023-01-30T01:44:11.858Z,0.56
2023-01-30T01:46:43.871Z,0.62
2023-01-30T01:49:16.466Z,0.69
2023-01-30T01:51:51.603Z,0.75
2023-01-30T01:54:28.519Z,0.79
2023-01-30T01:56:56.164Z,0.63
2023-01-30T01:59:29.330Z,0.65
2023-01-30T02:02:01.350Z,0.77
2023-01-30T02:04:49.424Z,0.70
2023-01-30T02:07:19.543Z,0.71
2023-01-30T02:09:48.994Z,0.75
2023-01-30T02:12:16.619Z,0.69
2023-01-30T02:14:45.120Z,1.04
2023-01-30T02:17:12.792Z,1.02
2023-01-30T02:19:51.357Z,1.18
2023-01-30T02:22:40.870Z,1.35
2023-01-30T02:25:50.628Z,1.30
2023-01-30T02:29:00.576Z,1.30
2023-01-30T02:31:36.897Z,1.16
2023-01-30T02:34:23.092Z,1.34
2023-01-30T02:37:02.237Z,1.41
2023-01-30T02:39:39.905Z,1.28
2023-01-30T02:42:20.474Z,1.37
2023-01-30T02:44:53.872Z,1.32
2023-01-30T02:47:54.425Z,1.30
2023-01-30T02:50:26.857Z,1.07
2023-01-30T02:52:55.176Z,0.94
2023-01-30T02:55:25.152Z,0.84
2023-01-30T02:57:53.048Z,0.85
2023-01-30T03:00:24.553Z,0.92
2023-01-30T03:03:22.564Z,0.96
2023-01-30T03:06:19.159Z,1.01
2023-01-30T03:09:00.911Z,1.05
2023-01-30T03:11:39.893Z,0.96
2023-01-30T03:14:15.111Z,0.95
2023-01-30T03:16:42.993Z,0.98
2023-01-30T03:19:13.888Z,0.94
2023-01-30T03:21:42.311Z,0.92
2023-01-30T03:24:09.975Z,0.82
2023-01-30T03:26:41.557Z,0.94
2023-01-30T03:29:09.198Z,0.96
2023-01-30T03:31:36.963Z,0.86
2023-01-30T03:34:04.870Z,1.00
2023-01-30T03:36:33.909Z,1.10
2023-01-30T03:39:01.573Z,1.02
2023-01-30T03:41:29.273Z,0.90
2023-01-30T03:43:56.868Z,1.15
2023-01-30T03:46:24.793Z,1.15
2023-01-30T03:48:52.407Z,1.12
2023-01-30T03:51:20.443Z,1.14
2023-01-30T03:53:49.962Z,1.02
2023-01-30T03:56:17.824Z,0.84
2023-01-30T03:58:45.538Z,1.00
2023-01-30T04:01:13.173Z,1.12
2023-01-30T04:03:40.762Z,1.04
2023-01-30T04:06:08.629Z,0.86
2023-01-30T04:08:36.223Z,0.93
2023-01-30T04:11:05.519Z,0.92
2023-01-30T04:13:33.101Z,0.95
2023-01-30T04:16:17.714Z,1.12
2023-01-30T04:18:45.959Z,1.25
2023-01-30T04:21:13.793Z,1.24
2023-01-30T04:23:41.905Z,1.25
2023-01-30T04:26:11.466Z,1.26
2023-01-30T04:28:39.429Z,1.35
2023-01-30T04:31:07.722Z,1.19
2023-01-30T04:33:36.109Z,1.21
2023-01-30T04:36:05.676Z,1.17
2023-01-30T04:38:34.271Z,1.21
2023-01-30T04:41:02.205Z,1.23
2023-01-30T04:43:31.943Z,1.16
2023-01-30T04:45:59.572Z,1.10
2023-01-30T04:48:27.750Z,1.18
2023-01-30T04:50:58.126Z,1.09
2023-01-30T04:53:26.540Z,1.16
2023-01-30T04:55:54.139Z,1.16
2023-01-30T04:58:21.788Z,1.21
2023-01-30T05:00:50.821Z,1.21
2023-01-30T05:03:18.747Z,1.19
2023-01-30T05:05:48.043Z,1.27
2023-01-30T05:08:16.115Z,1.19
2023-01-30T05:10:43.774Z,1.19
2023-01-30T05:13:11.425Z,1.19
2023-01-30T05:15:40.341Z,1.15
2023-01-30T05:18:09.285Z,1.24
2023-01-30T05:20:36.825Z,1.17
2023-01-30T05:23:04.396Z,1.30
2023-01-30T05:25:32.170Z,1.24
2023-01-30T05:28:00.003Z,1.27
2023-01-30T05:30:27.612Z,1.33
2023-01-30T05:32:55.288Z,1.37
2023-01-30T05:35:24.195Z,1.38
2023-01-30T05:37:51.886Z,1.44
2023-01-30T05:40:19.693Z,1.46
2023-01-30T05:42:48.867Z,1.58
2023-01-30T05:45:17.472Z,1.54
2023-01-30T05:47:45.182Z,1.46
2023-01-30T05:50:12.842Z,1.46
2023-01-30T05:52:41.756Z,1.52
2023-01-30T05:55:10.449Z,1.55
2023-01-30T05:57:37.999Z,1.63
2023-01-30T06:00:07.056Z,1.65
2023-01-30T06:02:34.681Z,1.63
2023-01-30T06:05:02.353Z,1.68
2023-01-30T06:07:30.017Z,1.67
2023-01-30T06:09:58.948Z,1.78
2023-01-30T06:12:26.506Z,1.82
2023-01-30T06:14:54.090Z,1.76
2023-01-30T06:17:21.659Z,1.72
2023-01-30T06:19:49.245Z,1.69
2023-01-30T06:22:16.804Z,1.69
2023-01-30T06:24:44.377Z,1.72
2023-01-30T06:27:14.340Z,1.81
2023-01-30T06:29:41.938Z,1.88
2023-01-30T06:32:10.580Z,1.85
2023-01-30T06:34:38.125Z,1.89
2023-01-30T06:37:05.690Z,1.98
2023-01-30T06:39:33.235Z,1.68
2023-01-30T06:42:00.748Z,1.74
2023-01-30T06:44:29.607Z,1.75
2023-01-30T06:46:57.155Z,1.80
2023-01-30T06:49:24.712Z,1.71
2023-01-30T06:51:52.250Z,1.71
2023-01-30T06:54:20.062Z,1.78
2023-01-30T06:56:47.651Z,1.88
2023-01-30T06:59:15.218Z,1.90
2023-01-30T07:01:44.313Z,1.90
2023-01-30T07:04:13.931Z,1.96
2023-01-30T07:06:41.520Z,1.97
2023-01-30T07:09:09.094Z,2.03
2023-01-30T07:11:36.680Z,2.06
2023-01-30T07:14:06.232Z,2.08
2023-01-30T07:16:33.951Z,2.01
2023-01-30T07:19:02.955Z,2.10
2023-01-30T07:21:30.579Z,2.19
2023-01-30T07:23:59.383Z,2.04
2023-01-30T07:26:27.007Z,1.97
2023-01-30T07:28:54.607Z,1.91
2023-01-30T07:31:22.217Z,1.99
2023-01-30T07:33:49.814Z,2.06
2023-01-30T07:36:18.820Z,2.09
2023-01-30T07:38:49.085Z,2.03
2023-01-30T07:41:16.785Z,1.96
2023-01-30T07:43:44.371Z,1.98
2023-01-30T07:46:12.111Z,1.93
2023-01-30T07:48:39.697Z,2.06
2023-01-30T07:51:07.789Z,1.98
2023-01-30T07:53:36.714Z,1.88
2023-01-30T07:56:08.190Z,1.86
2023-01-30T07:58:35.969Z,1.88
2023-01-30T08:01:03.711Z,1.91
2023-01-30T08:03:31.299Z,1.95
2023-01-30T08:05:58.875Z,1.93
2023-01-30T08:08:26.429Z,1.96
2023-01-30T08:10:55.312Z,1.96
2023-01-30T08:13:22.997Z,1.95
2023-01-30T08:15:50.850Z,1.91
2023-01-30T08:18:18.510Z,1.93
2023-01-30T08:20:46.133Z,1.93
2023-01-30T08:23:13.670Z,1.91
2023-01-30T08:25:41.186Z,1.97
2023-01-30T08:28:10.052Z,2.00
2023-01-30T08:30:37.652Z,2.02
2023-01-30T08:33:05.422Z,2.04
2023-01-30T08:35:32.949Z,2.06
2023-01-30T08:38:00.639Z,2.10
2023-01-30T08:40:28.293Z,2.11
2023-01-30T08:42:56.439Z,2.14
2023-01-30T08:45:25.545Z,2.19
2023-01-30T08:47:53.171Z,2.31
2023-01-30T08:50:21.161Z,2.35
2023-01-30T08:52:48.822Z,2.38
2023-01-30T08:55:16.614Z,2.38
2023-01-30T08:57:44.243Z,2.43
2023-01-30T09:00:13.597Z,2.42
2023-01-30T09:02:42.692Z,2.48
2023-01-30T09:05:11.775Z,2.53
2023-01-30T09:07:39.399Z,2.55
2023-01-30T09:10:07.712Z,2.56
2023-01-30T09:12:35.274Z,2.54
2023-01-30T09:15:02.945Z,2.56
2023-01-30T09:17:30.540Z,2.53
2023-01-30T09:19:59.506Z,2.56
2023-01-30T09:22:27.430Z,2.61
2023-01-30T09:24:55.007Z,2.69
2023-01-30T09:27:22.583Z,2.71
2023-01-30T09:29:50.128Z,2.69
2023-01-30T09:32:17.777Z,2.70
2023-01-30T09:34:45.330Z,2.70
2023-01-30T09:37:14.367Z,2.72
2023-01-30T09:39:41.933Z,2.78
2023-01-30T09:42:39.631Z,2.79
2023-01-30T09:45:41.411Z,2.88
2023-01-30T09:48:17.813Z,3.01
2023-01-30T09:51:03.941Z,3.08
2023-01-30T09:53:41.453Z,3.21
2023-01-30T09:56:09.200Z,3.22
2023-01-30T09:58:45.537Z,3.39
2023-01-30T10:01:21.998Z,3.37
2023-01-30T10:04:02.538Z,3.38
2023-01-30T10:06:32.036Z,3.58
2023-01-30T10:09:07.041Z,3.55
2023-01-30T10:11:50.003Z,3.73
2023-01-30T10:14:36.044Z,3.77
2023-01-30T10:17:19.348Z,3.74
2023-01-30T10:20:04.039Z,3.97
2023-01-30T10:22:42.674Z,4.01
2023-01-30T10:25:28.758Z,4.14
2023-01-30T10:28:02.567Z,4.21
2023-01-30T10:30:30.560Z,4.43
2023-01-30T10:33:03.159Z,4.17
2023-01-30T10:35:35.175Z,4.33
2023-01-30T10:38:13.561Z,4.56
2023-01-30T10:40:47.502Z,4.47
2023-01-30T10:43:21.926Z,4.24
2023-01-30T10:45:58.566Z,4.23
2023-01-30T10:48:59.273Z,4.27
2023-01-30T10:51:39.280Z,4.36
2023-01-30T10:54:17.445Z,4.72
2023-01-30T10:56:55.547Z,4.51
2023-01-30T10:59:25.440Z,4.62
2023-01-30T11:02:04.920Z,5.10
2023-01-30T11:04:39.708Z,4.61
2023-01-30T11:07:07.887Z,4.36
2023-01-30T11:09:43.127Z,4.83
2023-01-30T11:12:12.461Z,4.65
2023-01-30T11:14:54.657Z,5.35
2023-01-30T11:17:29.694Z,5.40
2023-01-30T11:19:58.628Z,5.12
2023-01-30T11:22:27.558Z,4.82
2023-01-30T11:25:03.217Z,5.21
2023-01-30T11:27:35.007Z,5.87
2023-01-30T11:30:13.039Z,5.61
2023-01-30T11:32:40.760Z,5.26
2023-01-30T11:35:58.777Z,4.58
2023-01-30T11:38:28.912Z,4.73
2023-01-30T11:41:05.519Z,4.47
2023-01-30T11:43:37.096Z,4.48
2023-01-30T11:46:06.489Z,4.32
2023-01-30T11:49:31.992Z,4.74
2023-01-30T11:51:25.620Z,4.82
2023-01-30T11:53:58.124Z,4.64
2023-01-30T11:56:33.551Z,4.39
2023-01-30T11:59:05.136Z,4.32
2023-01-30T12:01:35.244Z,4.12
2023-01-30T12:04:07.769Z,4.43
2023-01-30T12:06:38.017Z,4.40
2023-01-30T12:09:06.517Z,4.04
2023-01-30T12:11:44.977Z,4.14
2023-01-30T12:14:38.713Z,4.28
2023-01-30T12:17:15.775Z,4.23
2023-01-30T12:19:53.130Z,4.25
2023-01-30T12:22:27.741Z,4.16
2023-01-30T12:25:00.106Z,4.12
2023-01-30T12:27:38.803Z,4.02
2023-01-30T12:30:22.157Z,4.08
2023-01-30T12:32:50.096Z,4.20
2023-01-30T12:35:19.920Z,4.47
2023-01-30T12:38:01.905Z,4.35
2023-01-30T12:40:37.673Z,4.08
2023-01-30T12:43:23.888Z,4.30
2023-01-30T12:46:04.372Z,4.17
2023-01-30T12:49:10.372Z,4.30
2023-01-30T12:51:59.411Z,4.40
2023-01-30T12:54:40.582Z,4.42
2023-01-30T12:57:25.561Z,4.05
2023-01-30T13:00:04.654Z,4.10
2023-01-30T13:02:55.900Z,4.57
2023-01-30T13:05:36.305Z,4.37
2023-01-30T13:08:24.824Z,4.20
2023-01-30T13:11:00.298Z,4.00
2023-01-30T13:13:36.069Z,4.26
2023-01-30T13:16:11.945Z,4.08
2023-01-30T13:18:48.843Z,4.12
2023-01-30T13:21:20.682Z,4.27
2023-01-30T13:24:02.497Z,4.19
2023-01-30T13:26:34.869Z,4.06
2023-01-30T13:29:05.912Z,4.24
2023-01-30T13:31:39.024Z,4.45
2023-01-30T13:34:13.583Z,4.55
2023-01-30T13:36:45.653Z,4.60
2023-01-30T13:41:53.972Z,4.49
2023-01-30T13:44:25.760Z,5.10
2023-01-30T13:46:55.396Z,5.52
2023-01-30T13:49:31.693Z,5.25
2023-01-30T13:52:04.694Z,5.38
2023-01-30T13:54:48.062Z,5.71
2023-01-30T13:57:26.611Z,5.41
2023-01-30T14:00:19.426Z,5.11
2023-01-30T14:03:24.892Z,5.20
2023-01-30T14:06:31.805Z,5.04
2023-01-30T14:09:02.391Z,5.10
2023-01-30T14:11:34.574Z,5.28
2023-01-30T14:14:05.347Z,5.24
2023-01-30T14:16:47.930Z,5.19
2023-01-30T14:19:32.943Z,5.04
2023-01-30T14:22:06.349Z,4.93
2023-01-30T14:24:33.984Z,5.03
2023-01-30T14:27:04.072Z,5.06
2023-01-30T14:29:53.749Z,4.85
2023-01-30T14:32:53.242Z,4.83
2023-01-30T14:35:26.560Z,4.80
2023-01-30T14:38:14.001Z,4.82
2023-01-30T14:41:03.920Z,4.82
2023-01-30T14:43:52.334Z,4.65
2023-01-30T14:46:54.248Z,4.65
2023-01-30T14:49:30.534Z,4.71
2023-01-30T14:51:58.338Z,4.61
2023-01-30T14:54:41.769Z,4.64
2023-01-30T14:57:27.428Z,4.71
2023-01-30T15:00:18.441Z,4.70
2023-01-30T15:02:52.492Z,4.73
2023-01-30T15:05:26.193Z,4.65
2023-01-30T15:07:58.950Z,4.71
2023-01-30T15:10:49.597Z,4.52
2023-01-30T15:13:46.809Z,4.67
2023-01-30T15:16:32.647Z,4.53
2023-01-30T15:19:15.603Z,4.44
2023-01-30T15:21:55.340Z,4.29
2023-01-30T15:24:46.707Z,4.31
2023-01-30T15:27:22.417Z,4.23
2023-01-30T15:30:17.223Z,4.23
2023-01-30T15:32:45.983Z,4.27
2023-01-30T15:35:25.417Z,4.30
2023-01-30T15:37:55.128Z,4.18
2023-01-30T15:40:25.712Z,4.16
2023-01-30T15:43:13.066Z,4.15
2023-01-30T15:45:52.387Z,4.13
2023-01-30T15:48:40.778Z,3.97
2023-01-30T15:51:13.027Z,4.15
2023-01-30T15:53:43.832Z,3.98
2023-01-30T15:56:17.530Z,4.00
2023-01-30T15:58:46.941Z,4.10
2023-01-30T16:01:20.546Z,3.93
2023-01-30T16:03:50.932Z,3.87
2023-01-30T16:06:30.306Z,3.99
2023-01-30T16:09:00.432Z,4.11
2023-01-30T16:11:36.840Z,4.29
2023-01-30T16:14:07.289Z,4.20
2023-01-30T16:16:36.812Z,3.85
2023-01-30T16:19:09.003Z,4.27
2023-01-30T16:21:40.051Z,4.13
2023-01-30T16:24:15.210Z,4.13
2023-01-30T16:26:46.282Z,4.29
2023-01-30T16:29:18.779Z,4.15
2023-01-30T16:31:48.931Z,4.33
2023-01-30T16:34:29.198Z,4.38
2023-01-30T16:37:07.518Z,4.44
2023-01-30T16:39:36.779Z,4.21
2023-01-30T16:42:21.253Z,4.07
2023-01-30T16:44:50.180Z,3.99
2023-01-30T16:47:24.674Z,3.92
2023-01-30T16:49:53.754Z,3.96
2023-01-30T16:52:24.388Z,3.96
2023-01-30T16:54:54.335Z,4.05
2023-01-30T16:57:36.388Z,4.03
2023-01-30T17:00:10.066Z,3.94
2023-01-30T17:02:40.975Z,4.06
2023-01-30T17:05:20.419Z,4.08
2023-01-30T17:07:49.421Z,4.19
2023-01-30T17:10:53.674Z,4.02
2023-01-30T17:13:36.743Z,4.17
2023-01-30T17:16:33.384Z,3.91
2023-01-30T17:19:01.235Z,4.00
2023-01-30T17:21:32.103Z,3.91
2023-01-30T17:24:02.646Z,3.82
2023-01-30T17:26:31.519Z,3.64
2023-01-30T17:28:59.747Z,3.65
2023-01-30T17:31:27.484Z,3.63
2023-01-30T17:33:56.440Z,3.59
2023-01-30T17:36:27.182Z,3.55
2023-01-30T17:38:54.909Z,3.58
2023-01-30T17:41:25.082Z,3.58
2023-01-30T17:43:52.825Z,3.71
2023-01-30T17:46:24.768Z,3.66
2023-01-30T17:48:52.690Z,3.62
2023-01-30T17:51:21.603Z,3.65
2023-01-30T17:53:49.197Z,3.53
2023-01-30T17:56:19.708Z,3.48
2023-01-30T17:58:47.268Z,3.79
2023-01-30T18:01:16.160Z,3.63
2023-01-30T18:03:44.972Z,3.60
2023-01-30T18:06:14.423Z,3.62
2023-01-30T18:08:43.874Z,3.60
2023-01-30T18:11:14.752Z,3.63
2023-01-30T18:13:43.562Z,3.71
2023-01-30T18:16:16.583Z,3.84
2023-01-30T18:18:44.254Z,3.73
2023-01-30T18:21:12.128Z,3.93
2023-01-30T18:23:39.760Z,3.70
2023-01-30T18:26:11.596Z,3.89
2023-01-30T18:28:39.682Z,3.86
2023-01-30T18:31:07.545Z,3.97
2023-01-30T18:33:35.185Z,3.86
2023-01-30T18:36:05.774Z,3.83
2023-01-30T18:38:33.411Z,3.86
2023-01-30T18:41:08.715Z,3.69
2023-01-30T18:43:36.662Z,3.80
2023-01-30T18:46:06.289Z,3.66
2023-01-30T18:48:34.689Z,3.70
2023-01-30T18:51:07.537Z,3.62
2023-01-30T18:53:35.643Z,3.62
2023-01-30T18:56:03.279Z,3.67
2023-01-30T18:58:32.680Z,3.52
2023-01-30T19:01:01.106Z,3.55
2023-01-30T19:03:28.765Z,3.55
2023-01-30T19:05:56.306Z,3.50
2023-01-30T19:08:25.931Z,3.62
2023-01-30T19:10:53.750Z,3.59
2023-01-30T19:13:36.687Z,3.56
2023-01-30T19:16:06.851Z,3.56
2023-01-30T19:18:34.926Z,3.61
2023-01-30T19:21:03.290Z,3.55
2023-01-30T19:23:33.857Z,3.56
2023-01-30T19:26:01.789Z,3.62
2023-01-30T19:28:31.304Z,3.52
2023-01-30T19:30:59.693Z,3.63
2023-01-30T19:33:28.883Z,3.53
2023-01-30T19:35:56.655Z,3.68
2023-01-30T19:38:24.437Z,3.70
2023-01-30T19:40:52.103Z,3.68
2023-01-30T19:43:19.878Z,3.85
2023-01-30T19:45:58.108Z,3.81
2023-01-30T19:48:26.490Z,3.93
2023-01-30T19:50:55.558Z,3.98
2023-01-30T19:53:23.378Z,3.79
2023-01-30T19:55:51.411Z,3.91
2023-01-30T19:58:19.580Z,3.71
2023-01-30T20:00:49.242Z,3.94
2023-01-30T20:03:17.099Z,3.89
2023-01-30T20:05:45.168Z,3.92
2023-01-30T20:08:25.403Z,3.93
2023-01-30T20:11:02.375Z,3.85
2023-01-30T20:13:30.284Z,3.90
2023-01-30T20:16:06.157Z,3.89
2023-01-30T20:18:37.336Z,3.98
2023-01-30T20:21:07.837Z,4.03
2023-01-30T20:23:37.468Z,4.03
2023-01-30T20:26:06.170Z,4.07
2023-01-30T20:28:34.584Z,4.14
2023-01-30T20:31:09.231Z,4.24
2023-01-30T20:33:37.674Z,4.15
2023-01-30T20:36:08.084Z,4.22
2023-01-30T20:38:39.530Z,4.27
2023-01-30T20:41:09.417Z,4.22
2023-01-30T20:43:38.757Z,4.34
2023-01-30T20:46:09.040Z,4.32
2023-01-30T20:48:38.526Z,4.22
2023-01-30T20:51:08.443Z,4.26
2023-01-30T20:53:38.867Z,4.12
2023-01-30T20:56:09.316Z,4.28
2023-01-30T20:58:38.426Z,4.20
2023-01-30T21:01:11.400Z,4.07
2023-01-30T21:03:40.098Z,4.15
2023-01-30T21:06:08.006Z,4.02
2023-01-30T21:08:39.469Z,3.97
2023-01-30T21:11:08.884Z,3.82
2023-01-30T21:13:38.292Z,4.03
2023-01-30T21:16:08.407Z,3.83
2023-01-30T21:18:39.359Z,3.93
2023-01-30T21:21:07.664Z,3.65
2023-01-30T21:23:36.993Z,3.65
2023-01-30T21:26:06.614Z,3.86
2023-01-30T21:28:34.283Z,3.83
2023-01-30T21:31:06.595Z,3.91
2023-01-30T21:33:34.419Z,3.95
2023-01-30T21:36:02.671Z,4.07
2023-01-30T21:38:47.967Z,3.91
2023-01-30T21:41:35.874Z,3.94
2023-01-30T21:44:04.159Z,3.96
2023-01-30T21:46:34.502Z,3.98
2023-01-30T21:49:02.227Z,3.88
2023-01-30T21:51:30.416Z,3.96
2023-01-30T21:53:57.980Z,3.95
2023-01-30T21:56:27.241Z,3.87
2023-01-30T21:58:55.763Z,3.93
2023-01-30T22:01:23.603Z,3.86
2023-01-30T22:03:51.355Z,3.93
2023-01-30T22:06:18.980Z,3.92
2023-01-30T22:08:46.741Z,3.82
2023-01-30T22:11:16.198Z,3.64
2023-01-30T22:13:45.245Z,3.74
2023-01-30T22:16:14.336Z,3.67
2023-01-30T22:18:43.989Z,3.60
2023-01-30T22:21:13.286Z,3.71
2023-01-30T22:23:42.769Z,3.66
2023-01-30T22:26:11.468Z,3.69
2023-01-30T22:28:39.746Z,3.67
2023-01-30T22:31:10.810Z,3.71
2023-01-30T22:33:38.768Z,3.75
2023-01-30T22:36:08.602Z,3.77
2023-01-30T22:38:36.306Z,3.77
2023-01-30T22:41:07.012Z,3.81
2023-01-30T22:43:36.143Z,3.84
2023-01-30T22:46:06.041Z,3.82
2023-01-30T22:48:35.928Z,3.80
2023-01-30T22:51:05.686Z,3.87
2023-01-30T22:53:34.297Z,3.83
2023-01-30T22:56:03.580Z,3.73
2023-01-30T22:58:31.242Z,3.75
2023-01-30T23:01:05.893Z,3.90
2023-01-30T23:03:35.856Z,3.85
2023-01-30T23:06:06.807Z,3.78
2023-01-30T23:08:36.139Z,3.78
2023-01-30T23:11:08.592Z,3.78
2023-01-30T23:13:36.971Z,3.79
2023-01-30T23:16:06.339Z,3.77
2023-01-30T23:18:52.966Z,3.83
2023-01-30T23:21:20.710Z,3.95
2023-01-30T23:23:48.615Z,4.00
2023-01-30T23:26:16.247Z,3.88
2023-01-30T23:28:43.802Z,3.91
2023-01-30T23:31:13.317Z,3.79
2023-01-30T23:33:42.498Z,3.84
2023-01-30T23:36:36.526Z,3.84
2023-01-30T23:39:05.355Z,3.72
2023-01-30T23:41:36.765Z,3.80
2023-01-30T23:44:05.370Z,3.74
2023-01-30T23:46:34.356Z,3.69
2023-01-30T23:49:05.633Z,3.73
2023-01-30T23:51:35.483Z,3.76
2023-01-30T23:54:04.594Z,3.78
2023-01-30T23:56:35.467Z,3.75
2023-01-30T23:59:03.697Z,3.79
